Time;durP1;ratioP1;P1;durP2;ratioP2;P2;SDS_P1;SDS_P2;PMS_P1;PMS_P2;Temp;Humidity;BMP_temperature;BMP_pressure;BME280_temperature;BME280_humidity;BME280_pressure;Samples;Min_cycle;Max_cycle;Signal;HPM_P1;HPM_P2
2023/07/04 00:01:11;;;;;;;5.18;1.35;;;;;;;15.52;83.43;101113.91;4991725;28;96634;-27
2023/07/04 00:03:40;;;;;;;6.72;1.20;;;;;;;15.39;83.76;101107.63;4993116;28;96757;-26
2023/07/04 00:06:07;;;;;;;2.05;0.73;;;;;;;15.35;82.71;101104.28;4990887;28;101140;-27
2023/07/04 00:08:36;;;;;;;3.72;0.98;;;;;;;15.41;82.27;101114.72;4991431;28;101299;-26
2023/07/04 00:11:03;;;;;;;2.92;0.90;;;;;;;15.46;81.44;101122.56;4991571;28;96693;-28
2023/07/04 00:13:30;;;;;;;3.55;1.05;;;;;;;15.41;80.92;101122.03;4991208;28;96961;-26
2023/07/04 00:15:56;;;;;;;4.43;0.90;;;;;;;15.39;80.50;101130.34;4992824;28;97855;-27
2023/07/04 00:18:24;;;;;;;2.50;0.70;;;;;;;15.41;80.75;101113.84;4992549;28;98139;-26
2023/07/04 00:20:54;;;;;;;1.10;0.57;;;;;;;15.39;80.50;101133.06;4991484;28;96863;-26
2023/07/04 00:23:26;;;;;;;1.10;0.40;;;;;;;15.37;80.15;101120.53;4993352;28;96611;-26
2023/07/04 00:25:54;;;;;;;2.65;0.70;;;;;;;15.37;80.42;101131.44;4991088;28;98866;-26
2023/07/04 00:28:21;;;;;;;3.22;0.73;;;;;;;15.27;79.90;101129.44;4991169;28;101058;-26
2023/07/04 00:30:47;;;;;;;0.63;0.40;;;;;;;15.25;79.63;101131.44;4990740;28;97532;-26
2023/07/04 00:33:13;;;;;;;6.25;0.80;;;;;;;15.32;79.87;101133.66;4990949;28;97461;-26
2023/07/04 00:35:40;;;;;;;1.35;0.57;;;;;;;15.25;79.81;101134.16;4992273;28;98148;-26
2023/07/04 00:38:05;;;;;;;0.68;0.38;;;;;;;15.21;78.83;101131.78;4990539;28;99742;-28
2023/07/04 00:40:31;;;;;;;3.33;0.63;;;;;;;15.21;79.43;101138.09;4992303;28;96717;-26
2023/07/04 00:43:03;;;;;;;0.55;0.35;;;;;;;15.21;79.89;101145.44;4991616;28;96865;-26
2023/07/04 00:45:37;;;;;;;1.58;0.77;;;;;;;15.17;79.86;101143.91;4992418;28;98470;-27
2023/07/04 00:48:05;;;;;;;0.63;0.43;;;;;;;15.15;79.66;101144.00;4991243;28;100829;-26
2023/07/04 00:50:34;;;;;;;1.25;0.47;;;;;;;15.17;79.64;101138.44;4990987;28;96662;-26
2023/07/04 00:53:04;;;;;;;1.73;0.75;;;;;;;15.21;79.33;101146.28;4990774;28;96873;-26
2023/07/04 00:55:31;;;;;;;0.68;0.47;;;;;;;15.25;79.70;101139.63;4990258;28;100818;-26
2023/07/04 00:57:57;;;;;;;0.90;0.63;;;;;;;15.12;79.52;101138.81;4990854;28;101195;-26
2023/07/04 01:00:25;;;;;;;1.08;0.50;;;;;;;15.13;79.14;101142.38;4992182;28;96728;-27
2023/07/04 01:02:58;;;;;;;1.25;0.52;;;;;;;15.10;79.16;101135.31;4991211;28;96654;-26
2023/07/04 01:05:33;;;;;;;1.45;0.52;;;;;;;15.08;79.08;101146.34;4990470;28;100905;-26
2023/07/04 01:07:58;;;;;;;1.40;0.52;;;;;;;15.08;79.13;101134.56;4990520;28;101367;-26
2023/07/04 01:10:33;;;;;;;2.35;0.75;;;;;;;15.05;78.27;101123.88;4992263;28;96654;-26
2023/07/04 01:13:00;;;;;;;1.20;0.60;;;;;;;15.00;78.63;101124.22;4992617;28;96920;-26
2023/07/04 01:15:30;;;;;;;2.45;0.43;;;;;;;15.00;78.88;101131.56;4990405;28;101500;-26
2023/07/04 01:17:58;;;;;;;2.13;0.47;;;;;;;14.99;79.07;101127.06;4990573;28;101227;-26
2023/07/04 01:20:24;;;;;;;1.15;0.65;;;;;;;14.99;78.97;101122.50;4990067;28;97319;-26
2023/07/04 01:23:09;;;;;;;1.17;0.32;;;;;;;14.98;79.78;101126.19;4992032;28;96696;-26
2023/07/04 01:25:47;;;;;;;1.23;0.45;;;;;;;14.88;78.19;101116.13;4991243;28;98274;-26
2023/07/04 01:28:14;;;;;;;1.52;0.40;;;;;;;14.88;78.59;101116.97;4990495;28;100759;-26
2023/07/04 01:30:42;;;;;;;3.00;0.80;;;;;;;14.94;78.25;101118.38;4990527;28;96576;-28
2023/07/04 01:33:09;;;;;;;2.47;0.73;;;;;;;14.95;78.28;101122.84;4990265;28;96891;-26
2023/07/04 01:35:37;;;;;;;0.75;0.35;;;;;;;14.91;78.65;101119.47;4990080;28;101369;-27
2023/07/04 01:38:05;;;;;;;1.88;0.63;;;;;;;14.97;78.96;101120.84;4991376;28;99366;-26
2023/07/04 01:40:34;;;;;;;1.75;0.60;;;;;;;14.87;78.33;101117.94;4991521;28;96848;-26
2023/07/04 01:43:01;;;;;;;2.13;0.82;;;;;;;14.92;78.80;101121.22;4990217;28;96935;-26
2023/07/04 01:45:26;;;;;;;3.88;0.77;;;;;;;14.92;79.16;101117.59;4989685;28;100985;-26
2023/07/04 01:47:53;;;;;;;2.22;0.57;;;;;;;14.94;78.58;101115.63;4991732;28;97948;-27
2023/07/04 01:50:19;;;;;;;5.47;0.52;;;;;;;14.95;78.32;101125.56;4990228;28;96560;-27
2023/07/04 01:52:44;;;;;;;2.00;0.55;;;;;;;14.93;77.90;101120.22;4990279;28;96784;-26
2023/07/04 01:55:11;;;;;;;1.83;0.80;;;;;;;14.97;78.37;101126.31;4991573;28;97952;-27
2023/07/04 01:57:38;;;;;;;2.00;0.60;;;;;;;15.00;78.72;101126.97;4989982;28;101825;-27
2023/07/04 02:00:05;;;;;;;4.53;0.73;;;;;;;14.98;79.23;101128.94;4990011;28;96648;-26
2023/07/04 02:02:31;;;;;;;1.52;0.40;;;;;;;15.01;79.23;101130.56;4990450;28;96817;-26
2023/07/04 02:04:56;;;;;;;2.67;0.70;;;;;;;15.01;79.19;101122.38;4991517;28;97788;-26
2023/07/04 02:07:22;;;;;;;1.45;0.50;;;;;;;15.02;78.25;101115.94;4990715;28;109188;-28
2023/07/04 02:09:47;;;;;;;0.77;0.40;;;;;;;15.02;79.48;101110.47;4989366;28;96673;-26
2023/07/04 02:12:13;;;;;;;0.82;0.47;;;;;;;14.98;79.27;101112.56;4991312;28;96760;-26
2023/07/04 02:14:38;;;;;;;1.30;0.45;;;;;;;14.92;79.62;101107.59;4994580;28;98969;-26
2023/07/04 02:17:04;;;;;;;1.00;0.50;;;;;;;14.96;79.05;101116.38;4994978;28;97238;-26
2023/07/04 02:19:29;;;;;;;2.28;0.57;;;;;;;14.94;78.50;101118.38;4994543;28;97126;-26
2023/07/04 02:21:54;;;;;;;2.35;0.82;;;;;;;14.90;78.50;101108.66;4994845;28;96769;-27
2023/07/04 02:24:20;;;;;;;3.28;0.75;;;;;;;14.91;79.25;101121.34;4994901;28;97470;-26
2023/07/04 02:26:46;;;;;;;1.52;0.57;;;;;;;14.90;79.21;101115.00;4994722;28;97723;-27
2023/07/04 02:29:12;;;;;;;1.63;0.50;;;;;;;14.86;78.93;101119.81;4993074;28;96551;-27
2023/07/04 02:31:37;;;;;;;3.85;0.75;;;;;;;14.80;78.09;101114.84;4994596;28;96759;-27
2023/07/04 02:34:02;;;;;;;5.28;0.63;;;;;;;14.84;78.08;101118.19;4993659;28;99222;-28
2023/07/04 02:36:28;;;;;;;1.00;0.47;;;;;;;14.80;77.04;101124.84;4993829;28;99068;-26
2023/07/04 02:38:53;;;;;;;3.03;0.70;;;;;;;14.80;77.02;101122.13;4994032;28;96697;-26
2023/07/04 02:41:19;;;;;;;2.70;0.95;;;;;;;14.84;76.49;101126.38;4994070;28;96808;-28
2023/07/04 02:43:44;;;;;;;2.58;0.65;;;;;;;14.79;76.66;101118.53;4994037;28;98913;-26
2023/07/04 02:46:10;;;;;;;4.28;0.60;;;;;;;14.81;75.96;101127.47;4994342;28;97708;-27
2023/07/04 02:48:35;;;;;;;1.48;0.57;;;;;;;14.83;75.89;101119.19;4994161;28;96479;-26
2023/07/04 02:51:01;;;;;;;0.95;0.45;;;;;;;14.90;75.53;101127.75;4994502;28;96904;-27
2023/07/04 02:53:27;;;;;;;3.90;0.57;;;;;;;14.88;75.16;101127.88;4992543;28;100908;-26
2023/07/04 02:55:54;;;;;;;3.30;0.70;;;;;;;14.84;75.60;101124.50;4992392;28;101113;-26
2023/07/04 02:58:21;;;;;;;1.23;0.40;;;;;;;14.81;75.01;101122.03;4992169;28;97643;-26
2023/07/04 03:00:48;;;;;;;2.17;0.60;;;;;;;14.86;75.26;101125.25;4992596;28;97318;-26
2023/07/04 03:03:13;;;;;;;0.93;0.50;;;;;;;14.88;74.74;101127.88;4992393;28;101344;-26
2023/07/04 03:05:39;;;;;;;1.63;0.65;;;;;;;14.84;75.32;101131.81;4992304;28;100818;-26
2023/07/04 03:08:04;;;;;;;0.47;0.38;;;;;;;14.82;75.53;101123.75;4994004;28;96580;-26
2023/07/04 03:10:30;;;;;;;4.38;0.95;;;;;;;14.81;75.68;101119.28;4992616;28;96858;-26
2023/07/04 03:12:56;;;;;;;5.60;0.68;;;;;;;14.80;75.55;101130.31;4993397;28;99014;-26
2023/07/04 03:15:21;;;;;;;4.53;0.60;;;;;;;14.79;75.92;101124.00;4994167;28;97686;-26
2023/07/04 03:17:47;;;;;;;2.53;0.80;;;;;;;14.81;76.01;101132.94;4993859;28;96465;-26
2023/07/04 03:20:13;;;;;;;4.13;0.68;;;;;;;14.74;75.80;101128.06;4992422;28;96892;-26
2023/07/04 03:22:39;;;;;;;1.85;0.55;;;;;;;14.78;75.51;101129.56;4993105;28;97937;-27
2023/07/04 03:25:06;;;;;;;1.35;0.50;;;;;;;14.78;75.97;101135.03;4991261;28;101284;-27
2023/07/04 03:27:33;;;;;;;2.63;0.80;;;;;;;14.81;75.80;101135.66;4992198;28;96696;-26
2023/07/04 03:29:58;;;;;;;3.17;0.45;;;;;;;14.78;76.14;101135.88;4992384;28;96892;-26
2023/07/04 03:32:23;;;;;;;1.60;0.90;;;;;;;14.74;75.26;101128.91;4993560;28;97894;-26
2023/07/04 03:34:49;;;;;;;2.55;0.82;;;;;;;14.72;75.65;101133.59;4993294;28;97983;-26
2023/07/04 03:37:14;;;;;;;5.32;0.85;;;;;;;14.65;75.75;101126.88;4992980;28;96575;-26
2023/07/04 03:39:40;;;;;;;2.70;0.82;;;;;;;14.73;75.43;101137.19;4993645;28;96762;-26
2023/07/04 03:42:06;;;;;;;2.78;0.70;;;;;;;14.71;75.29;101144.66;4991836;28;101174;-26
2023/07/04 03:44:32;;;;;;;3.03;0.68;;;;;;;14.72;75.43;101141.78;4993654;28;97199;-27
2023/07/04 03:46:57;;;;;;;1.25;0.57;;;;;;;14.77;75.42;101145.03;4992851;28;96495;-26
2023/07/04 03:49:22;;;;;;;3.17;0.93;;;;;;;14.72;75.50;101127.28;4993507;28;96771;-26
2023/07/04 03:51:48;;;;;;;3.95;0.68;;;;;;;14.74;74.71;101134.38;4992888;28;99782;-26
2023/07/04 03:54:13;;;;;;;6.60;0.82;;;;;;;14.74;75.05;101134.38;4992850;28;99151;-27
2023/07/04 03:56:38;;;;;;;1.65;0.60;;;;;;;14.72;75.15;101139.06;4993249;28;96444;-26
2023/07/04 03:59:04;;;;;;;0.90;0.47;;;;;;;14.68;75.18;101134.81;4993324;28;96880;-26
2023/07/04 04:01:29;;;;;;;1.00;0.55;;;;;;;14.65;75.07;101138.63;4993051;28;97515;-26
2023/07/04 04:03:54;;;;;;;2.83;0.57;;;;;;;14.72;74.98;101149.97;4993482;28;97845;-27
2023/07/04 04:06:20;;;;;;;1.38;0.47;;;;;;;14.66;74.56;101136.81;4992877;28;96585;-26
2023/07/04 04:08:46;;;;;;;3.63;0.30;;;;;;;14.68;74.70;101147.59;4991743;28;96955;-27
2023/07/04 04:11:11;;;;;;;3.08;0.98;;;;;;;14.60;74.78;101134.53;4992213;28;97364;-26
2023/07/04 04:13:37;;;;;;;2.53;0.63;;;;;;;14.64;74.16;101139.63;4992816;28;97284;-26
2023/07/04 04:16:03;;;;;;;4.13;0.65;;;;;;;14.71;74.57;101148.25;4993200;28;96492;-26
2023/07/04 04:18:28;;;;;;;6.18;0.73;;;;;;;14.66;74.15;101136.81;4991458;28;96960;-27
2023/07/04 04:20:53;;;;;;;4.85;0.38;;;;;;;14.72;74.39;101138.19;4992750;28;98574;-27
2023/07/04 04:23:19;;;;;;;1.92;0.50;;;;;;;14.72;74.16;101144.53;4992614;28;97802;-26
2023/07/04 04:25:45;;;;;;;2.65;0.55;;;;;;;14.73;74.33;101148.09;4992671;28;96440;-26
2023/07/04 04:28:11;;;;;;;1.92;0.82;;;;;;;14.65;74.31;101143.22;4991629;28;97170;-26
2023/07/04 04:30:37;;;;;;;1.65;0.57;;;;;;;14.67;73.95;101144.00;4991137;28;101336;-26
2023/07/04 04:33:03;;;;;;;3.85;0.80;;;;;;;14.73;74.38;101143.56;4992396;28;97835;-26
2023/07/04 04:35:29;;;;;;;1.40;0.50;;;;;;;14.80;74.10;101150.28;4990517;28;96938;-26
2023/07/04 04:37:55;;;;;;;2.17;0.68;;;;;;;14.85;74.43;101152.69;4990157;28;96835;-27
2023/07/04 04:40:21;;;;;;;2.10;0.80;;;;;;;14.85;73.41;101148.09;4992297;28;97534;-26
2023/07/04 04:42:47;;;;;;;2.92;0.85;;;;;;;14.84;73.40;101143.59;4992353;28;99374;-27
2023/07/04 04:45:14;;;;;;;1.10;0.60;;;;;;;14.90;73.68;101149.56;4991134;28;96567;-28
2023/07/04 04:47:39;;;;;;;1.23;0.50;;;;;;;14.93;74.19;101154.81;4992513;28;96818;-27
2023/07/04 04:50:06;;;;;;;2.58;0.60;;;;;;;14.94;73.82;101153.81;4992351;28;97846;-27
2023/07/04 04:52:32;;;;;;;1.60;0.40;;;;;;;14.90;74.99;101149.56;4990864;28;101944;-26
2023/07/04 04:55:00;;;;;;;2.17;0.32;;;;;;;14.96;74.87;101158.19;4990942;28;96553;-26
2023/07/04 04:57:28;;;;;;;1.67;0.73;;;;;;;14.95;74.98;101147.41;4990849;28;96953;-26
2023/07/04 04:59:56;;;;;;;1.70;0.50;;;;;;;14.99;75.40;101155.25;4991423;28;99955;-26
2023/07/04 05:02:23;;;;;;;2.33;0.75;;;;;;;14.97;74.15;101159.03;4990642;28;101158;-27
2023/07/04 05:04:48;;;;;;;5.88;0.93;;;;;;;14.99;74.67;101149.78;4990678;28;96731;-26
2023/07/04 05:07:14;;;;;;;3.72;0.50;;;;;;;14.96;74.74;101146.41;4992280;28;97034;-26
2023/07/04 05:09:39;;;;;;;1.50;0.65;;;;;;;15.00;74.23;101150.66;4992059;28;97651;-26
2023/07/04 05:12:05;;;;;;;2.10;0.50;;;;;;;15.00;74.50;101153.38;4991749;28;99093;-26
2023/07/04 05:14:30;;;;;;;3.50;0.70;;;;;;;15.01;74.27;101141.47;4992363;28;96691;-27
2023/07/04 05:16:55;;;;;;;5.07;1.02;;;;;;;15.04;74.39;101155.75;4992211;28;96798;-26
2023/07/04 05:19:21;;;;;;;1.13;0.60;;;;;;;15.07;74.12;101154.66;4992077;28;98040;-26
2023/07/04 05:21:48;;;;;;;1.45;0.75;;;;;;;15.13;74.09;101151.44;4991880;28;97973;-26
2023/07/04 05:24:13;;;;;;;2.95;0.45;;;;;;;15.20;74.24;101158.19;4991417;28;96495;-27
2023/07/04 05:26:39;;;;;;;2.55;0.95;;;;;;;15.23;73.49;101151.59;4991938;28;96753;-26
2023/07/04 05:29:06;;;;;;;2.60;0.85;;;;;;;15.28;73.65;101161.22;4991874;28;98001;-27
2023/07/04 05:31:32;;;;;;;1.20;0.57;;;;;;;15.44;73.38;101168.22;4991837;28;98063;-28
2023/07/04 05:33:58;;;;;;;3.58;1.05;;;;;;;15.50;73.92;101178.66;4991597;28;96747;-26
2023/07/04 05:36:28;;;;;;;5.90;0.80;;;;;;;15.54;73.59;101168.38;4991647;28;96796;-27
2023/07/04 05:38:56;;;;;;;2.13;0.50;;;;;;;15.56;73.49;101171.84;4989656;28;100812;-26
2023/07/04 05:41:25;;;;;;;5.18;0.85;;;;;;;15.57;73.63;101166.28;4990458;28;100770;-26
2023/07/04 05:43:51;;;;;;;7.63;1.30;;;;;;;15.58;73.60;101176.19;4990311;28;96552;-26
2023/07/04 05:46:18;;;;;;;5.43;1.27;;;;;;;15.55;73.68;101171.00;4990279;28;96831;-27
2023/07/04 05:48:44;;;;;;;6.13;1.27;;;;;;;15.59;74.00;101180.69;4991810;28;101151;-26
2023/07/04 05:51:12;;;;;;;3.75;1.00;;;;;;;15.66;74.60;101190.16;4993468;28;100837;-26
2023/07/04 05:53:40;;;;;;;2.38;1.10;;;;;;;15.65;74.47;101187.53;4993684;28;96682;-26
2023/07/04 05:56:16;;;;;;;5.70;1.02;;;;;;;15.64;74.04;101183.06;4993640;28;96821;-26
2023/07/04 05:58:45;;;;;;;4.20;1.00;;;;;;;15.63;74.33;101176.72;4993386;28;101130;-27
2023/07/04 06:01:19;;;;;;;1.33;0.70;;;;;;;15.79;74.64;101197.41;4993214;28;100997;-27
2023/07/04 06:03:45;;;;;;;8.18;1.05;;;;;;;15.84;74.62;101189.72;4993614;28;96629;-27
2023/07/04 06:06:22;;;;;;;3.20;0.60;;;;;;;16.04;74.56;101189.03;4995181;28;96825;-26
2023/07/04 06:08:49;;;;;;;1.27;0.70;;;;;;;16.18;73.96;101195.25;4993408;28;100938;-26
2023/07/04 06:11:15;;;;;;;1.58;0.65;;;;;;;16.12;73.17;101175.63;4993333;28;101088;-27
2023/07/04 06:13:41;;;;;;;4.68;0.95;;;;;;;16.16;73.13;101183.56;4992788;28;97545;-26
2023/07/04 06:16:07;;;;;;;3.60;0.90;;;;;;;16.13;72.80;101182.81;4994800;28;96725;-27
2023/07/04 06:18:34;;;;;;;3.25;0.90;;;;;;;16.13;73.05;101177.34;4993295;28;101022;-26
2023/07/04 06:21:11;;;;;;;3.42;0.98;;;;;;;16.21;72.87;101189.53;4993183;28;101008;-27
2023/07/04 06:23:37;;;;;;;4.07;0.95;;;;;;;16.27;73.47;101205.47;4993240;28;97398;-27
2023/07/04 06:26:03;;;;;;;2.08;0.90;;;;;;;16.24;72.42;101197.50;4993172;28;96994;-26
2023/07/04 06:28:29;;;;;;;2.10;0.98;;;;;;;16.23;72.69;101204.84;4992770;28;101355;-26
2023/07/04 06:30:54;;;;;;;5.50;0.85;;;;;;;16.16;72.69;101203.59;4994792;28;97776;-26
2023/07/04 06:33:20;;;;;;;3.63;1.30;;;;;;;16.19;72.92;101208.81;4994404;28;96814;-27
2023/07/04 06:35:45;;;;;;;2.22;1.08;;;;;;;16.11;73.05;101203.97;4994258;28;96815;-26
2023/07/04 06:38:11;;;;;;;3.65;0.93;;;;;;;16.19;73.17;101210.69;4993077;28;98025;-26
2023/07/04 06:40:37;;;;;;;3.17;0.98;;;;;;;16.25;73.03;101216.50;4992507;28;101087;-27
2023/07/04 06:43:03;;;;;;;6.38;1.17;;;;;;;16.26;72.01;101211.94;4992773;28;96753;-26
2023/07/04 06:45:31;;;;;;;2.40;0.95;;;;;;;16.31;71.39;101226.09;4992542;28;96796;-26
2023/07/04 06:47:56;;;;;;;2.15;0.82;;;;;;;16.29;71.82;101220.75;4992588;28;101123;-26
2023/07/04 06:50:22;;;;;;;2.90;0.73;;;;;;;16.31;71.19;101217.91;4993945;28;99180;-27
2023/07/04 06:52:47;;;;;;;5.85;0.60;;;;;;;16.34;71.60;101228.56;4994364;28;96789;-26
2023/07/04 06:55:12;;;;;;;4.88;0.88;;;;;;;16.25;71.43;101224.69;4994437;28;96487;-26
2023/07/04 06:57:38;;;;;;;2.90;1.48;;;;;;;16.20;70.91;101216.00;4993592;28;99267;-26
2023/07/04 07:00:04;;;;;;;3.17;0.98;;;;;;;16.23;70.62;101223.09;4992982;28;98443;-26
2023/07/04 07:02:30;;;;;;;1.58;0.70;;;;;;;16.17;71.08;101220.84;4992144;28;96770;-26
2023/07/04 07:04:55;;;;;;;4.50;0.90;;;;;;;16.06;71.46;101228.03;4994185;28;96746;-27
2023/07/04 07:07:20;;;;;;;3.05;1.00;;;;;;;16.03;71.72;101221.94;4993515;28;99216;-27
2023/07/04 07:09:46;;;;;;;3.88;0.73;;;;;;;16.05;72.06;101230.91;4991261;28;99270;-26
2023/07/04 07:12:12;;;;;;;8.55;0.93;;;;;;;16.05;72.21;101234.50;4991317;28;97372;-26
2023/07/04 07:14:38;;;;;;;2.92;1.08;;;;;;;16.05;72.23;101233.63;4990297;28;96940;-30
2023/07/04 07:17:05;;;;;;;3.88;0.98;;;;;;;16.08;71.97;101234.25;4990358;28;100851;-27
2023/07/04 07:19:31;;;;;;;6.35;0.93;;;;;;;16.16;72.46;101240.97;4990739;28;100984;-29
2023/07/04 07:22:01;;;;;;;2.83;0.88;;;;;;;16.23;72.20;101236.75;4992318;28;96658;-30
2023/07/04 07:24:30;;;;;;;7.22;1.20;;;;;;;16.24;71.52;101233.91;4991832;28;96802;-26
2023/07/04 07:26:57;;;;;;;1.90;0.90;;;;;;;16.37;71.61;101239.25;4991511;28;100903;-26
2023/07/04 07:29:22;;;;;;;2.28;0.80;;;;;;;16.55;71.11;101236.94;4992018;28;98942;-26
2023/07/04 07:31:49;;;;;;;3.20;1.10;;;;;;;16.79;70.57;101244.19;4993887;28;96518;-26
2023/07/04 07:34:15;;;;;;;4.10;0.80;;;;;;;16.97;70.01;101254.50;4993290;28;96791;-26
2023/07/04 07:36:42;;;;;;;6.15;0.75;;;;;;;17.00;70.15;101234.22;4993446;28;98523;-26
2023/07/04 07:39:11;;;;;;;3.33;1.10;;;;;;;17.08;69.40;101248.13;4992746;28;99230;-26
2023/07/04 07:41:42;;;;;;;4.60;1.23;;;;;;;17.13;68.87;101255.94;4992108;28;96612;-26
2023/07/04 07:44:08;;;;;;;3.03;0.83;;;;;;;17.09;68.40;101260.81;4994111;28;96499;-26
2023/07/04 07:46:34;;;;;;;1.95;0.73;;;;;;;17.12;68.87;101259.69;4993237;28;98218;-26
2023/07/04 07:49:00;;;;;;;2.85;0.65;;;;;;;17.11;68.83;101255.19;4991750;28;101044;-27
2023/07/04 07:51:27;;;;;;;4.97;1.10;;;;;;;17.15;67.83;101268.50;4992530;28;96565;-27
2023/07/04 07:53:54;;;;;;;10.63;1.20;;;;;;;17.18;67.59;101254.59;4991585;28;96742;-26
2023/07/04 07:56:21;;;;;;;1.05;0.60;;;;;;;17.14;67.55;101244.88;4991670;28;101463;-27
2023/07/04 07:58:47;;;;;;;2.38;0.80;;;;;;;17.11;68.07;101233.31;4991594;28;101181;-26
2023/07/04 08:01:30;;;;;;;3.53;0.90;;;;;;;17.16;67.24;101252.94;4993482;28;96508;-26
2023/07/04 08:03:56;;;;;;;4.15;1.17;;;;;;;17.18;67.41;101249.13;4993080;28;96612;-26
2023/07/04 08:06:40;;;;;;;3.50;0.68;;;;;;;17.27;68.00;101263.03;4991439;28;101488;-28
2023/07/04 08:09:09;;;;;;;1.75;0.75;;;;;;;17.20;67.27;101249.81;4993154;28;99195;-26
2023/07/04 08:11:34;;;;;;;1.65;0.70;;;;;;;17.29;67.33;101253.69;4991259;28;96610;-26
2023/07/04 08:14:00;;;;;;;2.63;1.00;;;;;;;17.44;67.06;101261.59;4991457;28;96845;-26
2023/07/04 08:16:39;;;;;;;3.13;0.93;;;;;;;17.58;65.32;101261.31;4990990;28;100928;-26
2023/07/04 08:19:04;;;;;;;2.50;0.60;;;;;;;17.62;65.51;101254.59;4991492;28;100653;-26
2023/07/04 08:21:30;;;;;;;2.42;0.70;;;;;;;17.75;65.51;101265.34;4992835;28;99044;-26
2023/07/04 08:23:55;;;;;;;2.70;1.13;;;;;;;17.72;65.09;101263.75;4992856;28;96817;-26
2023/07/04 08:26:24;;;;;;;1.30;0.73;;;;;;;17.96;65.25;101274.50;4992372;28;99425;-27
2023/07/04 08:28:52;;;;;;;4.03;1.02;;;;;;;18.19;64.84;101272.53;4991181;28;101287;-26
2023/07/04 08:31:18;;;;;;;3.40;1.00;;;;;;;18.62;63.67;101267.88;4991020;28;96674;-26
2023/07/04 08:33:45;;;;;;;3.72;0.85;;;;;;;18.81;62.17;101275.38;4991561;28;96904;-26
2023/07/04 08:36:11;;;;;;;6.72;1.40;;;;;;;18.92;62.41;101282.63;4990803;28;101069;-27
2023/07/04 08:38:36;;;;;;;4.68;1.20;;;;;;;19.00;61.07;101277.34;4992198;28;97808;-26
2023/07/04 08:41:02;;;;;;;5.45;0.75;;;;;;;18.99;62.06;101281.06;4992178;28;96664;-26
2023/07/04 08:43:50;;;;;;;2.33;0.90;;;;;;;18.97;62.02;101286.69;4991056;28;96955;-27
2023/07/04 08:46:19;;;;;;;3.33;0.70;;;;;;;18.94;61.58;101286.97;4990870;28;100990;-26
2023/07/04 08:48:45;;;;;;;3.55;0.95;;;;;;;18.91;61.59;101290.00;4990903;28;100692;-27
2023/07/04 08:51:20;;;;;;;4.20;0.98;;;;;;;18.87;61.51;101274.81;4991384;28;96806;-26
2023/07/04 08:53:53;;;;;;;4.07;0.90;;;;;;;18.94;62.18;101286.97;4990989;28;96689;-26
2023/07/04 08:56:34;;;;;;;2.03;0.52;;;;;;;18.90;59.85;101288.25;4990728;28;100966;-26
2023/07/04 08:59:37;;;;;;;2.20;0.82;;;;;;;19.01;61.56;101298.28;4991166;28;100900;-27
2023/07/04 09:02:23;;;;;;;3.65;0.68;;;;;;;19.03;61.25;101299.03;4992008;28;96685;-26
2023/07/04 09:05:10;;;;;;;3.15;0.77;;;;;;;18.92;60.89;101299.97;4992227;28;96768;-27
2023/07/04 09:07:36;;;;;;;4.55;0.82;;;;;;;18.79;60.94;101302.94;4991845;28;97992;-26
2023/07/04 09:10:01;;;;;;;3.23;0.93;;;;;;;18.79;60.10;101315.81;4992315;28;97896;-26
2023/07/04 09:12:34;;;;;;;3.97;0.75;;;;;;;18.96;59.24;101298.69;4992228;28;96468;-27
2023/07/04 09:15:30;;;;;;;6.57;0.90;;;;;;;19.39;58.14;101310.41;4990717;28;96815;-26
2023/07/04 09:18:10;;;;;;;4.57;0.75;;;;;;;19.75;57.27;101308.91;4990441;28;101093;-27
2023/07/04 09:20:44;;;;;;;1.33;0.52;;;;;;;19.92;57.69;101308.19;4990438;28;101156;-27
2023/07/04 09:23:21;;;;;;;2.70;0.80;;;;;;;20.15;56.33;101310.69;4992205;28;96653;-27
2023/07/04 09:25:46;;;;;;;6.97;0.95;;;;;;;20.05;54.51;101313.44;4996171;28;96598;-27
2023/07/04 09:28:12;;;;;;;3.35;0.80;;;;;;;20.07;55.67;101313.25;4995563;28;97558;-27
2023/07/04 09:30:38;;;;;;;3.85;0.88;;;;;;;20.14;54.74;101306.16;4995688;28;97442;-26
2023/07/04 09:33:04;;;;;;;3.15;0.70;;;;;;;20.34;54.72;101315.28;4995015;28;96476;-26
2023/07/04 09:35:31;;;;;;;3.50;0.90;;;;;;;20.29;55.36;101321.22;4993771;28;97029;-26
2023/07/04 09:38:01;;;;;;;5.43;1.15;;;;;;;20.12;54.01;101314.59;4993363;28;101392;-26
2023/07/04 09:40:45;;;;;;;4.67;1.00;;;;;;;20.03;54.06;101312.69;4994810;28;97841;-26
2023/07/04 09:43:23;;;;;;;4.63;0.75;;;;;;;19.85;52.26;101329.03;4995106;28;96471;-26
2023/07/04 09:45:49;;;;;;;1.98;0.73;;;;;;;20.06;53.21;101326.16;4995568;28;96586;-27
2023/07/04 09:48:23;;;;;;;2.83;0.82;;;;;;;20.41;52.64;101313.69;4995507;28;97355;-28
2023/07/04 09:50:48;;;;;;;3.75;0.75;;;;;;;20.66;52.95;101325.09;4993998;28;101222;-27
2023/07/04 09:53:19;;;;;;;2.08;0.77;;;;;;;20.31;50.41;101330.22;4995270;28;96621;-26
2023/07/04 09:56:01;;;;;;;6.47;1.63;;;;;;;20.06;53.46;101333.53;4993862;28;96799;-27
2023/07/04 09:58:28;;;;;;;1.63;0.85;;;;;;;20.03;54.44;101329.19;4993018;28;101236;-28
2023/07/04 10:01:08;;;;;;;4.72;0.77;;;;;;;20.11;54.27;101322.97;4993300;28;101008;-26
2023/07/04 10:03:35;;;;;;;5.75;0.88;;;;;;;20.09;52.52;101336.00;4993668;28;96703;-27
2023/07/04 10:06:01;;;;;;;3.10;0.80;;;;;;;20.19;54.24;101336.88;4993524;28;96836;-26
2023/07/04 10:08:27;;;;;;;4.32;0.60;;;;;;;20.30;53.86;101333.97;4992936;28;101122;-26
2023/07/04 10:10:55;;;;;;;3.25;0.98;;;;;;;20.16;51.63;101334.41;4993993;28;99167;-26
2023/07/04 10:13:33;;;;;;;1.27;0.63;;;;;;;20.08;53.28;101348.03;4991721;28;98643;-26
2023/07/04 10:15:59;;;;;;;3.20;0.88;;;;;;;20.07;53.58;101349.91;4993915;28;96905;-27
2023/07/04 10:18:28;;;;;;;3.20;1.00;;;;;;;20.06;52.83;101348.16;4994690;28;97932;-26
2023/07/04 10:20:55;;;;;;;2.45;0.63;;;;;;;19.94;51.86;101344.66;4993040;28;101228;-26
2023/07/04 10:23:22;;;;;;;4.38;0.63;;;;;;;19.83;52.93;101344.81;4992907;28;97126;-27
2023/07/04 10:25:50;;;;;;;2.08;0.90;;;;;;;20.03;52.39;101353.94;4993147;28;96798;-26
2023/07/04 10:28:18;;;;;;;2.25;0.75;;;;;;;20.14;52.28;101364.81;4993188;28;100951;-26
2023/07/04 10:30:49;;;;;;;4.03;0.90;;;;;;;20.19;50.38;101344.25;4994309;28;98051;-27
2023/07/04 10:33:21;;;;;;;1.83;0.80;;;;;;;20.23;51.72;101353.94;4993001;28;97159;-26
2023/07/04 10:35:49;;;;;;;2.80;1.02;;;;;;;20.10;50.74;101362.50;4994228;28;96685;-28
2023/07/04 10:38:31;;;;;;;1.90;0.98;;;;;;;19.98;51.61;101339.78;4992296;28;100850;-32
2023/07/04 10:40:59;;;;;;;3.28;0.85;;;;;;;19.90;52.46;101351.50;4993051;28;101923;-26
2023/07/04 10:43:32;;;;;;;3.90;0.88;;;;;;;19.81;50.50;101346.84;4992927;28;96686;-26
2023/07/04 10:46:01;;;;;;;2.30;0.50;;;;;;;19.97;51.67;101353.66;4993069;28;96736;-26
2023/07/04 10:48:31;;;;;;;2.88;0.98;;;;;;;20.38;51.26;101347.00;4992251;28;101370;-31
2023/07/04 10:51:17;;;;;;;1.90;1.00;;;;;;;20.58;51.11;101345.13;4992277;28;99018;-29
2023/07/04 10:53:43;;;;;;;6.65;1.00;;;;;;;20.76;50.79;101339.72;4992767;28;96663;-29
2023/07/04 10:56:19;;;;;;;1.98;0.73;;;;;;;21.02;49.97;101339.91;4994194;28;96779;-28
2023/07/04 10:58:47;;;;;;;3.38;0.75;;;;;;;20.80;50.39;101338.41;4992535;28;100792;-25
2023/07/04 11:01:39;;;;;;;2.42;0.77;;;;;;;20.57;49.92;101346.16;4992202;28;100927;-27
2023/07/04 11:04:18;;;;;;;2.65;1.00;;;;;;;20.37;51.03;101337.00;4987211;28;96517;-26
2023/07/04 11:06:52;;;;;;;4.07;1.02;;;;;;;20.30;52.64;101344.97;4994616;28;96662;-26
2023/07/04 11:09:19;;;;;;;3.30;1.00;;;;;;;20.52;52.35;101352.06;4992477;28;100991;-26
2023/07/04 11:11:50;;;;;;;2.17;0.80;;;;;;;20.79;51.68;101336.69;4992182;28;101366;-26
2023/07/04 11:14:23;;;;;;;2.15;0.85;;;;;;;20.75;51.05;101349.00;4991931;28;96994;-27
2023/07/04 11:16:54;;;;;;;0.90;0.60;;;;;;;20.63;51.58;101339.19;4992411;28;96800;-27
2023/07/04 11:19:22;;;;;;;1.83;0.55;;;;;;;20.59;51.89;101352.34;4992299;28;101052;-26
2023/07/04 11:22:03;;;;;;;4.97;1.00;;;;;;;20.61;51.12;101355.84;4993346;28;99825;-26
2023/07/04 11:24:35;;;;;;;1.75;0.60;;;;;;;21.02;49.62;101334.41;4992243;28;96628;-26
2023/07/04 11:27:05;;;;;;;3.55;0.60;;;;;;;21.51;50.24;101348.88;4992210;28;96898;-26
2023/07/04 11:29:54;;;;;;;3.55;0.60;;;;;;;21.72;48.35;101343.09;4992161;28;100836;-26